sensor_id;sensor_type;location;lat;lon;timestamp;P1;durP1;ratioP1;P2;durP2;ratioP2
7375;SDS011;3728;42.266;24.944;2023-05-10T00:02:12;6.40;;;2.80;;
7375;SDS011;3728;42.266;24.944;2023-05-10T00:04:40;5.83;;;3.27;;
7375;SDS011;3728;42.266;24.944;2023-05-10T00:07:07;5.40;;;2.97;;
7375;SDS011;3728;42.266;24.944;2023-05-10T00:09:36;7.07;;;3.57;;
7375;SDS011;3728;42.266;24.944;2023-05-10T00:12:04;8.73;;;3.37;;
7375;SDS011;3728;42.266;24.944;2023-05-10T00:14:32;11.03;;;3.90;;
7375;SDS011;3728;42.266;24.944;2023-05-10T00:17:00;5.03;;;2.93;;
7375;SDS011;3728;42.266;24.944;2023-05-10T00:19:27;5.53;;;3.33;;
7375;SDS011;3728;42.266;24.944;2023-05-10T00:21:55;6.67;;;3.40;;
7375;SDS011;3728;42.266;24.944;2023-05-10T00:24:23;5.20;;;2.87;;
7375;SDS011;3728;42.266;24.944;2023-05-10T00:26:51;6.63;;;3.07;;
7375;SDS011;3728;42.266;24.944;2023-05-10T00:29:19;6.37;;;3.13;;
7375;SDS011;3728;42.266;24.944;2023-05-10T00:31:46;5.17;;;3.17;;
7375;SDS011;3728;42.266;24.944;2023-05-10T00:34:14;7.23;;;3.57;;
7375;SDS011;3728;42.266;24.944;2023-05-10T00:36:42;6.67;;;3.00;;
7375;SDS011;3728;42.266;24.944;2023-05-10T00:39:09;5.03;;;3.10;;
7375;SDS011;3728;42.266;24.944;2023-05-10T00:41:37;5.30;;;3.13;;
7375;SDS011;3728;42.266;24.944;2023-05-10T00:44:06;8.60;;;3.57;;
7375;SDS011;3728;42.266;24.944;2023-05-10T00:46:33;6.53;;;3.13;;
7375;SDS011;3728;42.266;24.944;2023-05-10T00:49:02;8.23;;;3.97;;
7375;SDS011;3728;42.266;24.944;2023-05-10T00:51:30;10.60;;;4.37;;
7375;SDS011;3728;42.266;24.944;2023-05-10T00:53:59;10.37;;;5.80;;
7375;SDS011;3728;42.266;24.944;2023-05-10T00:56:26;7.97;;;5.53;;
7375;SDS011;3728;42.266;24.944;2023-05-10T00:58:56;10.50;;;4.10;;
7375;SDS011;3728;42.266;24.944;2023-05-10T01:01:24;8.53;;;4.30;;
7375;SDS011;3728;42.266;24.944;2023-05-10T01:03:52;7.43;;;3.87;;
7375;SDS011;3728;42.266;24.944;2023-05-10T01:06:20;5.00;;;3.90;;
7375;SDS011;3728;42.266;24.944;2023-05-10T01:08:48;7.33;;;3.60;;
7375;SDS011;3728;42.266;24.944;2023-05-10T01:11:17;7.77;;;3.77;;
7375;SDS011;3728;42.266;24.944;2023-05-10T01:13:45;6.40;;;3.80;;
7375;SDS011;3728;42.266;24.944;2023-05-10T01:16:22;9.27;;;3.90;;
7375;SDS011;3728;42.266;24.944;2023-05-10T01:18:52;7.20;;;3.60;;
7375;SDS011;3728;42.266;24.944;2023-05-10T01:21:27;3.73;;;3.27;;
7375;SDS011;3728;42.266;24.944;2023-05-10T01:24:38;3.57;;;2.97;;
7375;SDS011;3728;42.266;24.944;2023-05-10T01:33:19;7.97;;;3.63;;
7375;SDS011;3728;42.266;24.944;2023-05-10T01:38:47;5.90;;;4.00;;
7375;SDS011;3728;42.266;24.944;2023-05-10T01:46:58;10.53;;;7.90;;
7375;SDS011;3728;42.266;24.944;2023-05-10T01:49:47;11.57;;;7.87;;
7375;SDS011;3728;42.266;24.944;2023-05-10T01:52:19;14.10;;;10.73;;
7375;SDS011;3728;42.266;24.944;2023-05-10T01:54:54;14.23;;;10.23;;
7375;SDS011;3728;42.266;24.944;2023-05-10T01:57:35;12.77;;;11.23;;
7375;SDS011;3728;42.266;24.944;2023-05-10T02:00:06;8.67;;;7.40;;
7375;SDS011;3728;42.266;24.944;2023-05-10T02:02:46;10.27;;;6.00;;
7375;SDS011;3728;42.266;24.944;2023-05-10T02:05:16;6.30;;;4.50;;
7375;SDS011;3728;42.266;24.944;2023-05-10T02:07:47;5.97;;;3.63;;
7375;SDS011;3728;42.266;24.944;2023-05-10T02:10:18;7.90;;;3.67;;
7375;SDS011;3728;42.266;24.944;2023-05-10T02:12:47;6.33;;;3.80;;
7375;SDS011;3728;42.266;24.944;2023-05-10T02:15:19;7.73;;;4.00;;
7375;SDS011;3728;42.266;24.944;2023-05-10T02:17:51;6.07;;;4.20;;
7375;SDS011;3728;42.266;24.944;2023-05-10T02:20:25;10.93;;;7.27;;
7375;SDS011;3728;42.266;24.944;2023-05-10T02:22:54;14.63;;;9.33;;
7375;SDS011;3728;42.266;24.944;2023-05-10T02:25:24;10.27;;;6.87;;
7375;SDS011;3728;42.266;24.944;2023-05-10T02:27:53;11.63;;;5.50;;
7375;SDS011;3728;42.266;24.944;2023-05-10T02:30:26;11.23;;;6.80;;
7375;SDS011;3728;42.266;24.944;2023-05-10T02:32:55;13.70;;;9.80;;
7375;SDS011;3728;42.266;24.944;2023-05-10T02:35:25;15.17;;;9.03;;
7375;SDS011;3728;42.266;24.944;2023-05-10T02:37:54;18.40;;;12.27;;
7375;SDS011;3728;42.266;24.944;2023-05-10T02:40:27;20.17;;;12.70;;
7375;SDS011;3728;42.266;24.944;2023-05-10T02:42:56;16.03;;;10.10;;
7375;SDS011;3728;42.266;24.944;2023-05-10T02:45:27;12.60;;;7.47;;
7375;SDS011;3728;42.266;24.944;2023-05-10T02:47:58;14.53;;;9.20;;
7375;SDS011;3728;42.266;24.944;2023-05-10T02:50:30;12.53;;;9.23;;
7375;SDS011;3728;42.266;24.944;2023-05-10T02:53:01;7.03;;;5.40;;
7375;SDS011;3728;42.266;24.944;2023-05-10T02:55:39;4.37;;;3.97;;
7375;SDS011;3728;42.266;24.944;2023-05-10T02:58:09;9.20;;;4.43;;
7375;SDS011;3728;42.266;24.944;2023-05-10T03:00:37;6.13;;;3.50;;
7375;SDS011;3728;42.266;24.944;2023-05-10T03:03:04;6.37;;;3.90;;
7375;SDS011;3728;42.266;24.944;2023-05-10T03:05:33;5.57;;;4.00;;
7375;SDS011;3728;42.266;24.944;2023-05-10T03:08:02;7.90;;;3.73;;
7375;SDS011;3728;42.266;24.944;2023-05-10T03:10:31;7.90;;;3.67;;
7375;SDS011;3728;42.266;24.944;2023-05-10T03:18:42;8.97;;;4.00;;
7375;SDS011;3728;42.266;24.944;2023-05-10T03:21:17;8.33;;;3.37;;
7375;SDS011;3728;42.266;24.944;2023-05-10T03:23:59;6.43;;;3.50;;
7375;SDS011;3728;42.266;24.944;2023-05-10T03:26:39;5.37;;;3.50;;
7375;SDS011;3728;42.266;24.944;2023-05-10T03:29:12;8.53;;;3.53;;
7375;SDS011;3728;42.266;24.944;2023-05-10T03:31:42;6.63;;;4.00;;
7375;SDS011;3728;42.266;24.944;2023-05-10T03:34:10;5.57;;;4.00;;
7375;SDS011;3728;42.266;24.944;2023-05-10T03:36:38;4.30;;;3.57;;
7375;SDS011;3728;42.266;24.944;2023-05-10T03:39:05;5.57;;;3.73;;
7375;SDS011;3728;42.266;24.944;2023-05-10T03:41:33;5.03;;;3.67;;
7375;SDS011;3728;42.266;24.944;2023-05-10T03:44:01;5.03;;;3.37;;
7375;SDS011;3728;42.266;24.944;2023-05-10T03:46:28;9.30;;;7.53;;
7375;SDS011;3728;42.266;24.944;2023-05-10T03:48:56;16.67;;;10.70;;
7375;SDS011;3728;42.266;24.944;2023-05-10T03:51:24;20.67;;;18.27;;
7375;SDS011;3728;42.266;24.944;2023-05-10T03:53:54;26.20;;;21.00;;
7375;SDS011;3728;42.266;24.944;2023-05-10T03:56:22;17.27;;;11.03;;
7375;SDS011;3728;42.266;24.944;2023-05-10T03:58:50;8.97;;;7.73;;
7375;SDS011;3728;42.266;24.944;2023-05-10T04:01:18;15.10;;;7.20;;
7375;SDS011;3728;42.266;24.944;2023-05-10T04:03:45;20.57;;;17.70;;
7375;SDS011;3728;42.266;24.944;2023-05-10T04:06:13;14.60;;;10.97;;
7375;SDS011;3728;42.266;24.944;2023-05-10T04:08:41;10.20;;;7.87;;
7375;SDS011;3728;42.266;24.944;2023-05-10T04:11:09;9.33;;;5.70;;
7375;SDS011;3728;42.266;24.944;2023-05-10T04:13:40;9.17;;;5.10;;
7375;SDS011;3728;42.266;24.944;2023-05-10T04:16:07;10.43;;;4.30;;
7375;SDS011;3728;42.266;24.944;2023-05-10T04:18:35;7.80;;;3.70;;
7375;SDS011;3728;42.266;24.944;2023-05-10T04:21:03;10.80;;;6.30;;
7375;SDS011;3728;42.266;24.944;2023-05-10T04:23:31;19.83;;;16.43;;
7375;SDS011;3728;42.266;24.944;2023-05-10T04:26:00;14.00;;;12.60;;
7375;SDS011;3728;42.266;24.944;2023-05-10T04:28:28;24.50;;;22.00;;
7375;SDS011;3728;42.266;24.944;2023-05-10T04:31:06;37.37;;;30.53;;
7375;SDS011;3728;42.266;24.944;2023-05-10T04:33:36;19.07;;;13.63;;
7375;SDS011;3728;42.266;24.944;2023-05-10T04:36:04;11.97;;;7.27;;
7375;SDS011;3728;42.266;24.944;2023-05-10T04:38:32;6.57;;;5.07;;
7375;SDS011;3728;42.266;24.944;2023-05-10T04:41:06;11.03;;;5.67;;
7375;SDS011;3728;42.266;24.944;2023-05-10T04:43:36;6.70;;;3.80;;
7375;SDS011;3728;42.266;24.944;2023-05-10T04:46:04;3.63;;;3.33;;
7375;SDS011;3728;42.266;24.944;2023-05-10T04:48:33;5.20;;;3.37;;
7375;SDS011;3728;42.266;24.944;2023-05-10T04:51:02;3.87;;;3.27;;
7375;SDS011;3728;42.266;24.944;2023-05-10T04:53:30;4.13;;;3.13;;
7375;SDS011;3728;42.266;24.944;2023-05-10T04:55:58;4.27;;;3.33;;
7375;SDS011;3728;42.266;24.944;2023-05-10T04:58:26;6.17;;;3.63;;
7375;SDS011;3728;42.266;24.944;2023-05-10T05:00:53;7.93;;;3.70;;
7375;SDS011;3728;42.266;24.944;2023-05-10T05:03:21;3.53;;;2.90;;
7375;SDS011;3728;42.266;24.944;2023-05-10T05:05:49;4.80;;;3.10;;
7375;SDS011;3728;42.266;24.944;2023-05-10T05:08:16;6.93;;;3.70;;
7375;SDS011;3728;42.266;24.944;2023-05-10T05:10:44;5.80;;;3.60;;
7375;SDS011;3728;42.266;24.944;2023-05-10T05:13:12;6.47;;;3.30;;
7375;SDS011;3728;42.266;24.944;2023-05-10T05:15:40;4.60;;;3.43;;
7375;SDS011;3728;42.266;24.944;2023-05-10T05:18:07;4.47;;;3.03;;
7375;SDS011;3728;42.266;24.944;2023-05-10T05:20:35;4.47;;;3.10;;
7375;SDS011;3728;42.266;24.944;2023-05-10T05:23:02;3.53;;;2.97;;
7375;SDS011;3728;42.266;24.944;2023-05-10T05:25:30;6.60;;;3.10;;
7375;SDS011;3728;42.266;24.944;2023-05-10T05:28:01;5.43;;;3.13;;
7375;SDS011;3728;42.266;24.944;2023-05-10T05:30:28;5.27;;;3.20;;
7375;SDS011;3728;42.266;24.944;2023-05-10T05:32:56;5.97;;;2.90;;
7375;SDS011;3728;42.266;24.944;2023-05-10T05:35:23;5.87;;;2.90;;
7375;SDS011;3728;42.266;24.944;2023-05-10T05:37:51;4.60;;;2.70;;
7375;SDS011;3728;42.266;24.944;2023-05-10T05:40:19;7.07;;;3.17;;
7375;SDS011;3728;42.266;24.944;2023-05-10T05:42:46;6.57;;;2.90;;
7375;SDS011;3728;42.266;24.944;2023-05-10T05:45:14;8.30;;;2.80;;
7375;SDS011;3728;42.266;24.944;2023-05-10T05:47:42;3.20;;;2.73;;
7375;SDS011;3728;42.266;24.944;2023-05-10T05:50:10;3.23;;;2.77;;
7375;SDS011;3728;42.266;24.944;2023-05-10T05:52:38;6.60;;;3.07;;
7375;SDS011;3728;42.266;24.944;2023-05-10T05:55:05;3.93;;;3.07;;
7375;SDS011;3728;42.266;24.944;2023-05-10T05:57:33;3.13;;;2.77;;
7375;SDS011;3728;42.266;24.944;2023-05-10T06:00:01;8.73;;;3.20;;
7375;SDS011;3728;42.266;24.944;2023-05-10T06:02:37;4.93;;;2.73;;
7375;SDS011;3728;42.266;24.944;2023-05-10T06:05:08;6.40;;;3.00;;
7375;SDS011;3728;42.266;24.944;2023-05-10T06:07:36;5.80;;;3.17;;
7375;SDS011;3728;42.266;24.944;2023-05-10T06:10:03;4.77;;;3.10;;
7375;SDS011;3728;42.266;24.944;2023-05-10T06:12:32;4.97;;;2.97;;
7375;SDS011;3728;42.266;24.944;2023-05-10T06:14:59;4.10;;;2.73;;
7375;SDS011;3728;42.266;24.944;2023-05-10T06:17:27;5.37;;;3.03;;
7375;SDS011;3728;42.266;24.944;2023-05-10T06:19:55;5.10;;;3.27;;
7375;SDS011;3728;42.266;24.944;2023-05-10T06:22:23;5.10;;;3.13;;
7375;SDS011;3728;42.266;24.944;2023-05-10T06:24:50;10.60;;;3.27;;
7375;SDS011;3728;42.266;24.944;2023-05-10T06:27:18;5.57;;;2.90;;
7375;SDS011;3728;42.266;24.944;2023-05-10T06:29:46;3.83;;;2.53;;
7375;SDS011;3728;42.266;24.944;2023-05-10T06:32:15;9.87;;;3.00;;
7375;SDS011;3728;42.266;24.944;2023-05-10T06:34:43;6.27;;;3.03;;
7375;SDS011;3728;42.266;24.944;2023-05-10T06:37:11;3.43;;;2.90;;
7375;SDS011;3728;42.266;24.944;2023-05-10T06:39:39;7.97;;;2.50;;
7375;SDS011;3728;42.266;24.944;2023-05-10T06:42:06;5.97;;;2.60;;
7375;SDS011;3728;42.266;24.944;2023-05-10T06:44:34;7.37;;;2.93;;
7375;SDS011;3728;42.266;24.944;2023-05-10T06:47:01;3.33;;;2.77;;
7375;SDS011;3728;42.266;24.944;2023-05-10T06:49:29;3.53;;;2.43;;
7375;SDS011;3728;42.266;24.944;2023-05-10T06:51:57;7.33;;;2.73;;
7375;SDS011;3728;42.266;24.944;2023-05-10T06:54:24;5.13;;;2.30;;
7375;SDS011;3728;42.266;24.944;2023-05-10T06:56:52;4.03;;;2.63;;
7375;SDS011;3728;42.266;24.944;2023-05-10T06:59:20;3.27;;;2.43;;
7375;SDS011;3728;42.266;24.944;2023-05-10T07:01:49;5.03;;;2.80;;
7375;SDS011;3728;42.266;24.944;2023-05-10T07:04:16;4.60;;;2.30;;
7375;SDS011;3728;42.266;24.944;2023-05-10T07:06:44;6.27;;;3.00;;
7375;SDS011;3728;42.266;24.944;2023-05-10T07:09:12;5.87;;;2.70;;
7375;SDS011;3728;42.266;24.944;2023-05-10T07:11:40;7.87;;;3.10;;
7375;SDS011;3728;42.266;24.944;2023-05-10T07:14:08;4.17;;;2.70;;
7375;SDS011;3728;42.266;24.944;2023-05-10T07:16:35;5.47;;;2.90;;
7375;SDS011;3728;42.266;24.944;2023-05-10T07:19:03;18.53;;;3.10;;
7375;SDS011;3728;42.266;24.944;2023-05-10T07:21:33;5.53;;;2.80;;
7375;SDS011;3728;42.266;24.944;2023-05-10T07:24:01;9.80;;;3.20;;
7375;SDS011;3728;42.266;24.944;2023-05-10T07:26:29;6.53;;;2.60;;
7375;SDS011;3728;42.266;24.944;2023-05-10T07:28:57;4.63;;;2.87;;
7375;SDS011;3728;42.266;24.944;2023-05-10T07:31:25;3.83;;;3.00;;
7375;SDS011;3728;42.266;24.944;2023-05-10T07:33:52;6.43;;;2.80;;
7375;SDS011;3728;42.266;24.944;2023-05-10T07:36:20;4.73;;;3.00;;
7375;SDS011;3728;42.266;24.944;2023-05-10T07:38:47;4.33;;;2.67;;
7375;SDS011;3728;42.266;24.944;2023-05-10T07:41:16;2.70;;;2.40;;
7375;SDS011;3728;42.266;24.944;2023-05-10T07:43:43;6.30;;;2.80;;
7375;SDS011;3728;42.266;24.944;2023-05-10T07:46:11;6.67;;;2.40;;
7375;SDS011;3728;42.266;24.944;2023-05-10T07:48:39;6.33;;;2.73;;
7375;SDS011;3728;42.266;24.944;2023-05-10T07:51:07;10.13;;;2.93;;
7375;SDS011;3728;42.266;24.944;2023-05-10T07:53:35;3.20;;;2.53;;
7375;SDS011;3728;42.266;24.944;2023-05-10T07:58:56;4.30;;;2.63;;
7375;SDS011;3728;42.266;24.944;2023-05-10T08:01:24;6.37;;;2.67;;
7375;SDS011;3728;42.266;24.944;2023-05-10T08:03:53;3.13;;;2.83;;
7375;SDS011;3728;42.266;24.944;2023-05-10T08:06:21;5.47;;;2.40;;
7375;SDS011;3728;42.266;24.944;2023-05-10T08:08:49;8.57;;;2.20;;
7375;SDS011;3728;42.266;24.944;2023-05-10T08:11:17;3.17;;;2.40;;
7375;SDS011;3728;42.266;24.944;2023-05-10T08:13:47;18.30;;;3.57;;
7375;SDS011;3728;42.266;24.944;2023-05-10T08:16:16;4.80;;;2.30;;
7375;SDS011;3728;42.266;24.944;2023-05-10T08:18:44;4.63;;;2.43;;
7375;SDS011;3728;42.266;24.944;2023-05-10T08:21:14;2.33;;;2.13;;
7375;SDS011;3728;42.266;24.944;2023-05-10T08:23:42;5.93;;;2.23;;
7375;SDS011;3728;42.266;24.944;2023-05-10T08:26:12;2.63;;;2.03;;
7375;SDS011;3728;42.266;24.944;2023-05-10T08:28:40;3.20;;;2.23;;
7375;SDS011;3728;42.266;24.944;2023-05-10T08:31:07;5.23;;;2.20;;
7375;SDS011;3728;42.266;24.944;2023-05-10T08:33:35;5.90;;;2.20;;
7375;SDS011;3728;42.266;24.944;2023-05-10T08:36:03;3.73;;;2.00;;
7375;SDS011;3728;42.266;24.944;2023-05-10T08:38:31;5.77;;;2.50;;
7375;SDS011;3728;42.266;24.944;2023-05-10T08:40:59;2.33;;;2.00;;
7375;SDS011;3728;42.266;24.944;2023-05-10T08:43:29;4.13;;;2.20;;
7375;SDS011;3728;42.266;24.944;2023-05-10T08:46:00;11.77;;;3.23;;
7375;SDS011;3728;42.266;24.944;2023-05-10T08:48:29;4.40;;;2.37;;
7375;SDS011;3728;42.266;24.944;2023-05-10T08:50:58;12.07;;;2.70;;
7375;SDS011;3728;42.266;24.944;2023-05-10T08:53:28;4.83;;;2.87;;
7375;SDS011;3728;42.266;24.944;2023-05-10T08:55:58;1.80;;;1.70;;
7375;SDS011;3728;42.266;24.944;2023-05-10T08:58:28;4.53;;;2.57;;
7375;SDS011;3728;42.266;24.944;2023-05-10T09:00:56;5.73;;;2.53;;
7375;SDS011;3728;42.266;24.944;2023-05-10T09:03:25;4.40;;;2.60;;
7375;SDS011;3728;42.266;24.944;2023-05-10T09:05:52;5.20;;;2.23;;
7375;SDS011;3728;42.266;24.944;2023-05-10T09:08:25;4.23;;;2.23;;
7375;SDS011;3728;42.266;24.944;2023-05-10T09:10:56;3.33;;;2.43;;
7375;SDS011;3728;42.266;24.944;2023-05-10T09:13:24;3.47;;;2.50;;
7375;SDS011;3728;42.266;24.944;2023-05-10T09:15:52;3.50;;;1.83;;
7375;SDS011;3728;42.266;24.944;2023-05-10T09:18:20;3.37;;;2.10;;
7375;SDS011;3728;42.266;24.944;2023-05-10T09:20:48;3.57;;;2.40;;
7375;SDS011;3728;42.266;24.944;2023-05-10T09:23:16;2.40;;;2.20;;
7375;SDS011;3728;42.266;24.944;2023-05-10T09:25:43;3.53;;;2.53;;
7375;SDS011;3728;42.266;24.944;2023-05-10T09:28:11;4.00;;;2.47;;
7375;SDS011;3728;42.266;24.944;2023-05-10T09:30:39;5.53;;;3.03;;
7375;SDS011;3728;42.266;24.944;2023-05-10T09:33:06;3.60;;;3.30;;
7375;SDS011;3728;42.266;24.944;2023-05-10T09:35:34;4.80;;;2.87;;
7375;SDS011;3728;42.266;24.944;2023-05-10T09:38:03;3.27;;;3.07;;
7375;SDS011;3728;42.266;24.944;2023-05-10T09:40:31;4.67;;;4.10;;
7375;SDS011;3728;42.266;24.944;2023-05-10T09:43:08;4.10;;;3.57;;
7375;SDS011;3728;42.266;24.944;2023-05-10T09:45:37;5.50;;;3.70;;
7375;SDS011;3728;42.266;24.944;2023-05-10T09:48:04;4.13;;;3.20;;
7375;SDS011;3728;42.266;24.944;2023-05-10T09:50:33;3.80;;;3.37;;
7375;SDS011;3728;42.266;24.944;2023-05-10T09:53:01;6.13;;;4.27;;
7375;SDS011;3728;42.266;24.944;2023-05-10T09:58:11;6.13;;;4.60;;
7375;SDS011;3728;42.266;24.944;2023-05-10T10:00:43;6.77;;;4.87;;
7375;SDS011;3728;42.266;24.944;2023-05-10T10:03:15;5.23;;;4.73;;
7375;SDS011;3728;42.266;24.944;2023-05-10T10:05:45;5.70;;;5.07;;
7375;SDS011;3728;42.266;24.944;2023-05-10T10:08:15;10.70;;;5.27;;
7375;SDS011;3728;42.266;24.944;2023-05-10T10:10:43;6.37;;;4.93;;
7375;SDS011;3728;42.266;24.944;2023-05-10T10:13:12;4.77;;;4.37;;
7375;SDS011;3728;42.266;24.944;2023-05-10T10:15:40;7.80;;;3.50;;
7375;SDS011;3728;42.266;24.944;2023-05-10T10:18:12;3.93;;;3.30;;
7375;SDS011;3728;42.266;24.944;2023-05-10T10:20:43;5.33;;;2.90;;
7375;SDS011;3728;42.266;24.944;2023-05-10T10:23:12;5.03;;;3.53;;
7375;SDS011;3728;42.266;24.944;2023-05-10T10:25:42;6.33;;;3.57;;
7375;SDS011;3728;42.266;24.944;2023-05-10T10:28:25;5.17;;;2.73;;
7375;SDS011;3728;42.266;24.944;2023-05-10T10:34:09;2.30;;;2.10;;
7375;SDS011;3728;42.266;24.944;2023-05-10T10:36:45;2.80;;;2.00;;
7375;SDS011;3728;42.266;24.944;2023-05-10T10:39:14;3.27;;;2.33;;
7375;SDS011;3728;42.266;24.944;2023-05-10T10:41:54;29.17;;;5.07;;
7375;SDS011;3728;42.266;24.944;2023-05-10T10:52:33;3.70;;;2.23;;
7375;SDS011;3728;42.266;24.944;2023-05-10T10:55:08;7.47;;;2.30;;
7375;SDS011;3728;42.266;24.944;2023-05-10T11:02:48;6.33;;;2.17;;
7375;SDS011;3728;42.266;24.944;2023-05-10T11:07:59;2.73;;;2.07;;
7375;SDS011;3728;42.266;24.944;2023-05-10T11:10:33;5.63;;;2.00;;
7375;SDS011;3728;42.266;24.944;2023-05-10T11:15:31;2.13;;;1.90;;
7375;SDS011;3728;42.266;24.944;2023-05-10T11:18:16;4.40;;;1.90;;
7375;SDS011;3728;42.266;24.944;2023-05-10T11:20:58;2.97;;;2.03;;
7375;SDS011;3728;42.266;24.944;2023-05-10T11:23:30;5.47;;;2.00;;
7375;SDS011;3728;42.266;24.944;2023-05-10T11:26:00;2.83;;;1.90;;
7375;SDS011;3728;42.266;24.944;2023-05-10T11:28:27;3.33;;;1.80;;
7375;SDS011;3728;42.266;24.944;2023-05-10T11:30:55;3.37;;;1.90;;
7375;SDS011;3728;42.266;24.944;2023-05-10T11:33:23;5.20;;;1.73;;
7375;SDS011;3728;42.266;24.944;2023-05-10T11:35:51;2.03;;;1.70;;
7375;SDS011;3728;42.266;24.944;2023-05-10T11:38:18;11.40;;;3.00;;
7375;SDS011;3728;42.266;24.944;2023-05-10T11:40:46;2.70;;;1.93;;
7375;SDS011;3728;42.266;24.944;2023-05-10T11:43:13;2.93;;;1.80;;
7375;SDS011;3728;42.266;24.944;2023-05-10T11:45:43;4.90;;;2.00;;
7375;SDS011;3728;42.266;24.944;2023-05-10T11:48:12;4.53;;;1.70;;
7375;SDS011;3728;42.266;24.944;2023-05-10T11:50:39;2.23;;;1.40;;
7375;SDS011;3728;42.266;24.944;2023-05-10T11:53:07;3.73;;;1.60;;
7375;SDS011;3728;42.266;24.944;2023-05-10T11:55:34;2.73;;;1.83;;
7375;SDS011;3728;42.266;24.944;2023-05-10T11:58:02;3.87;;;1.80;;
7375;SDS011;3728;42.266;24.944;2023-05-10T12:00:30;1.93;;;1.70;;
7375;SDS011;3728;42.266;24.944;2023-05-10T12:02:59;3.57;;;2.00;;
7375;SDS011;3728;42.266;24.944;2023-05-10T12:05:28;5.53;;;1.73;;
7375;SDS011;3728;42.266;24.944;2023-05-10T12:08:12;7.57;;;2.10;;
7375;SDS011;3728;42.266;24.944;2023-05-10T12:10:42;3.10;;;1.70;;
7375;SDS011;3728;42.266;24.944;2023-05-10T12:13:13;2.27;;;1.70;;
7375;SDS011;3728;42.266;24.944;2023-05-10T12:15:42;1.60;;;1.50;;
7375;SDS011;3728;42.266;24.944;2023-05-10T12:18:11;3.90;;;1.70;;
7375;SDS011;3728;42.266;24.944;2023-05-10T12:20:40;2.20;;;2.00;;
7375;SDS011;3728;42.266;24.944;2023-05-10T12:23:09;1.60;;;1.50;;
7375;SDS011;3728;42.266;24.944;2023-05-10T12:25:37;2.73;;;1.60;;
7375;SDS011;3728;42.266;24.944;2023-05-10T12:28:07;2.13;;;1.37;;
7375;SDS011;3728;42.266;24.944;2023-05-10T12:30:36;1.63;;;1.37;;
7375;SDS011;3728;42.266;24.944;2023-05-10T12:33:09;2.50;;;1.57;;
7375;SDS011;3728;42.266;24.944;2023-05-10T12:35:45;1.83;;;1.33;;
7375;SDS011;3728;42.266;24.944;2023-05-10T12:41:10;5.77;;;2.00;;
7375;SDS011;3728;42.266;24.944;2023-05-10T12:43:41;1.57;;;1.40;;
7375;SDS011;3728;42.266;24.944;2023-05-10T12:46:09;2.03;;;1.70;;
7375;SDS011;3728;42.266;24.944;2023-05-10T12:48:39;1.63;;;1.33;;
7375;SDS011;3728;42.266;24.944;2023-05-10T12:51:09;1.43;;;1.30;;
7375;SDS011;3728;42.266;24.944;2023-05-10T12:53:43;2.43;;;1.60;;
7375;SDS011;3728;42.266;24.944;2023-05-10T12:56:14;3.17;;;1.70;;
7375;SDS011;3728;42.266;24.944;2023-05-10T12:58:42;1.60;;;1.50;;
7375;SDS011;3728;42.266;24.944;2023-05-10T13:01:14;2.00;;;1.70;;
7375;SDS011;3728;42.266;24.944;2023-05-10T13:03:42;3.60;;;1.60;;
7375;SDS011;3728;42.266;24.944;2023-05-10T13:06:10;10.43;;;1.93;;
7375;SDS011;3728;42.266;24.944;2023-05-10T13:08:39;2.40;;;1.70;;
7375;SDS011;3728;42.266;24.944;2023-05-10T13:11:07;3.37;;;1.60;;
7375;SDS011;3728;42.266;24.944;2023-05-10T13:13:34;2.43;;;1.57;;
7375;SDS011;3728;42.266;24.944;2023-05-10T13:16:02;4.73;;;1.70;;
7375;SDS011;3728;42.266;24.944;2023-05-10T13:18:30;3.53;;;1.50;;
7375;SDS011;3728;42.266;24.944;2023-05-10T13:20:57;6.20;;;1.60;;
7375;SDS011;3728;42.266;24.944;2023-05-10T13:23:25;1.97;;;1.30;;
7375;SDS011;3728;42.266;24.944;2023-05-10T13:25:53;3.27;;;1.80;;
7375;SDS011;3728;42.266;24.944;2023-05-10T13:28:20;6.00;;;1.63;;
7375;SDS011;3728;42.266;24.944;2023-05-10T13:30:48;2.70;;;1.50;;
7375;SDS011;3728;42.266;24.944;2023-05-10T13:33:15;3.63;;;1.50;;
7375;SDS011;3728;42.266;24.944;2023-05-10T13:35:43;7.77;;;1.97;;
7375;SDS011;3728;42.266;24.944;2023-05-10T13:38:11;3.23;;;1.37;;
7375;SDS011;3728;42.266;24.944;2023-05-10T13:40:40;5.30;;;1.60;;
7375;SDS011;3728;42.266;24.944;2023-05-10T13:43:08;1.97;;;1.40;;
7375;SDS011;3728;42.266;24.944;2023-05-10T13:45:35;2.30;;;1.37;;
7375;SDS011;3728;42.266;24.944;2023-05-10T13:48:03;1.40;;;1.30;;
7375;SDS011;3728;42.266;24.944;2023-05-10T13:50:31;1.30;;;1.20;;
7375;SDS011;3728;42.266;24.944;2023-05-10T13:52:58;5.93;;;2.03;;
7375;SDS011;3728;42.266;24.944;2023-05-10T13:55:26;2.20;;;1.50;;
7375;SDS011;3728;42.266;24.944;2023-05-10T13:57:55;2.00;;;1.50;;
7375;SDS011;3728;42.266;24.944;2023-05-10T14:00:22;3.07;;;1.60;;
7375;SDS011;3728;42.266;24.944;2023-05-10T14:02:50;1.87;;;1.50;;
7375;SDS011;3728;42.266;24.944;2023-05-10T14:05:18;3.50;;;1.70;;
7375;SDS011;3728;42.266;24.944;2023-05-10T14:07:51;2.10;;;1.30;;
7375;SDS011;3728;42.266;24.944;2023-05-10T14:10:20;1.60;;;1.50;;
7375;SDS011;3728;42.266;24.944;2023-05-10T14:12:48;2.53;;;1.70;;
7375;SDS011;3728;42.266;24.944;2023-05-10T14:15:16;3.83;;;1.63;;
7375;SDS011;3728;42.266;24.944;2023-05-10T14:17:44;3.53;;;1.50;;
7375;SDS011;3728;42.266;24.944;2023-05-10T14:20:12;2.50;;;1.57;;
7375;SDS011;3728;42.266;24.944;2023-05-10T14:22:39;3.83;;;1.50;;
7375;SDS011;3728;42.266;24.944;2023-05-10T14:25:07;3.40;;;1.47;;
7375;SDS011;3728;42.266;24.944;2023-05-10T14:27:35;3.37;;;1.50;;
7375;SDS011;3728;42.266;24.944;2023-05-10T14:30:04;2.57;;;1.10;;
7375;SDS011;3728;42.266;24.944;2023-05-10T14:32:33;4.67;;;1.53;;
7375;SDS011;3728;42.266;24.944;2023-05-10T14:35:03;4.70;;;1.50;;
7375;SDS011;3728;42.266;24.944;2023-05-10T14:37:32;1.30;;;1.20;;
7375;SDS011;3728;42.266;24.944;2023-05-10T14:40:00;1.40;;;1.30;;
7375;SDS011;3728;42.266;24.944;2023-05-10T14:42:30;3.90;;;1.60;;
7375;SDS011;3728;42.266;24.944;2023-05-10T14:44:58;1.87;;;1.20;;
7375;SDS011;3728;42.266;24.944;2023-05-10T14:47:26;1.77;;;1.13;;
7375;SDS011;3728;42.266;24.944;2023-05-10T14:49:53;3.60;;;1.50;;
7375;SDS011;3728;42.266;24.944;2023-05-10T14:52:21;1.63;;;1.20;;
7375;SDS011;3728;42.266;24.944;2023-05-10T14:54:48;5.70;;;1.40;;
7375;SDS011;3728;42.266;24.944;2023-05-10T14:57:16;2.37;;;1.33;;
7375;SDS011;3728;42.266;24.944;2023-05-10T14:59:44;1.53;;;1.10;;
7375;SDS011;3728;42.266;24.944;2023-05-10T15:02:12;0.90;;;0.90;;
7375;SDS011;3728;42.266;24.944;2023-05-10T15:04:40;4.93;;;1.40;;
7375;SDS011;3728;42.266;24.944;2023-05-10T15:07:08;1.33;;;1.23;;
7375;SDS011;3728;42.266;24.944;2023-05-10T15:09:36;1.13;;;1.07;;
7375;SDS011;3728;42.266;24.944;2023-05-10T15:12:03;1.80;;;1.50;;
7375;SDS011;3728;42.266;24.944;2023-05-10T15:14:31;1.50;;;1.10;;
7375;SDS011;3728;42.266;24.944;2023-05-10T15:16:59;3.40;;;1.20;;
7375;SDS011;3728;42.266;24.944;2023-05-10T15:19:27;4.93;;;1.37;;
7375;SDS011;3728;42.266;24.944;2023-05-10T15:21:55;1.63;;;1.27;;
7375;SDS011;3728;42.266;24.944;2023-05-10T15:24:23;1.52;;;1.23;;
7375;SDS011;3728;42.266;24.944;2023-05-10T15:26:51;4.57;;;1.55;;
7375;SDS011;3728;42.266;24.944;2023-05-10T15:29:18;1.47;;;1.10;;
7375;SDS011;3728;42.266;24.944;2023-05-10T15:31:47;1.50;;;1.17;;
7375;SDS011;3728;42.266;24.944;2023-05-10T15:34:16;4.40;;;1.30;;
7375;SDS011;3728;42.266;24.944;2023-05-10T15:36:44;0.97;;;0.97;;
7375;SDS011;3728;42.266;24.944;2023-05-10T15:39:12;1.67;;;1.10;;
7375;SDS011;3728;42.266;24.944;2023-05-10T15:41:40;2.63;;;1.00;;
7375;SDS011;3728;42.266;24.944;2023-05-10T15:44:07;1.30;;;1.20;;
7375;SDS011;3728;42.266;24.944;2023-05-10T15:46:35;4.07;;;1.33;;
7375;SDS011;3728;42.266;24.944;2023-05-10T15:49:04;2.53;;;1.50;;
7375;SDS011;3728;42.266;24.944;2023-05-10T15:51:32;1.93;;;1.40;;
7375;SDS011;3728;42.266;24.944;2023-05-10T15:54:03;3.77;;;1.60;;
7375;SDS011;3728;42.266;24.944;2023-05-10T15:56:33;3.33;;;1.30;;
7375;SDS011;3728;42.266;24.944;2023-05-10T15:59:02;2.93;;;1.43;;
7375;SDS011;3728;42.266;24.944;2023-05-10T16:01:31;3.43;;;1.27;;